createdAt,value
2024-04-22T00:01:39.127Z,4.07
2024-04-22T00:04:06.913Z,4.30
2024-04-22T00:06:35.763Z,4.63
2024-04-22T00:09:03.318Z,3.40
2024-04-22T00:11:30.890Z,3.60
2024-04-22T00:13:58.432Z,4.40
2024-04-22T00:16:25.941Z,3.77
2024-04-22T00:18:53.702Z,4.03
2024-04-22T00:21:21.391Z,3.73
2024-04-22T00:23:48.909Z,4.47
2024-04-22T00:26:16.417Z,3.97
2024-04-22T00:28:44.076Z,4.00
2024-04-22T00:31:13.935Z,3.97
2024-04-22T00:33:41.608Z,4.30
2024-04-22T00:36:10.071Z,4.07
2024-04-22T00:38:37.745Z,4.13
2024-04-22T00:41:05.514Z,4.23
2024-04-22T00:43:33.122Z,3.90
2024-04-22T00:46:00.755Z,3.93
2024-04-22T00:48:32.633Z,4.53
2024-04-22T00:51:01.160Z,4.53
2024-04-22T00:53:29.259Z,4.17
2024-04-22T00:55:57.144Z,4.60
2024-04-22T00:58:25.594Z,4.10
2024-04-22T01:00:53.418Z,4.20
2024-04-22T01:03:21.254Z,4.67
2024-04-22T01:05:48.992Z,4.60
2024-04-22T01:08:17.148Z,4.03
2024-04-22T01:10:46.068Z,4.23
2024-04-22T01:13:13.920Z,4.70
2024-04-22T01:15:41.446Z,4.57
2024-04-22T01:18:09.084Z,4.10
2024-04-22T01:20:36.702Z,4.37
2024-04-22T01:23:04.238Z,4.33
2024-04-22T01:25:32.676Z,4.53
2024-04-22T01:28:00.259Z,4.37
2024-04-22T01:30:27.825Z,3.87
2024-04-22T01:32:55.484Z,4.70
2024-04-22T01:35:23.049Z,4.90
2024-04-22T01:37:50.648Z,4.77
2024-04-22T01:40:18.213Z,4.50
2024-04-22T01:42:45.749Z,4.20
2024-04-22T01:45:13.274Z,4.47
2024-04-22T01:47:48.453Z,4.53
2024-04-22T01:50:16.032Z,4.37
2024-04-22T01:52:43.744Z,4.97
2024-04-22T01:55:11.634Z,5.27
2024-04-22T01:57:39.391Z,4.77
2024-04-22T02:00:07.353Z,4.23
2024-04-22T02:02:37.151Z,5.13
2024-04-22T02:05:05.110Z,5.23
2024-04-22T02:07:33.074Z,4.70
2024-04-22T02:10:09.209Z,6.33
2024-04-22T02:12:44.979Z,5.30
2024-04-22T02:15:12.933Z,4.40
2024-04-22T02:17:40.825Z,4.83
2024-04-22T02:20:08.530Z,5.47
2024-04-22T02:22:36.361Z,5.47
2024-04-22T02:25:04.279Z,5.97
2024-04-22T02:27:31.849Z,5.03
2024-04-22T02:29:59.353Z,5.20
2024-04-22T02:32:26.916Z,5.13
2024-04-22T02:34:54.473Z,4.87
2024-04-22T02:37:22.009Z,5.70
2024-04-22T02:39:49.548Z,5.13
2024-04-22T02:42:17.041Z,5.30
2024-04-22T02:44:44.560Z,5.00
2024-04-22T02:47:12.128Z,5.20
2024-04-22T02:49:41.206Z,5.27
2024-04-22T02:52:09.187Z,5.27
2024-04-22T02:54:36.743Z,5.23
2024-04-22T02:57:04.447Z,5.10
2024-04-22T02:59:31.959Z,5.53
2024-04-22T03:01:59.476Z,5.00
2024-04-22T03:04:27.034Z,5.77
2024-04-22T03:06:54.734Z,5.50
2024-04-22T03:11:59.821Z,5.50
2024-04-22T03:14:28.156Z,5.43
2024-04-22T03:16:55.735Z,5.70
2024-04-22T03:19:24.228Z,5.33
2024-04-22T03:21:52.177Z,5.80
2024-04-22T03:24:19.854Z,5.70
2024-04-22T03:26:47.800Z,5.13
2024-04-22T03:29:15.363Z,6.13
2024-04-22T03:31:43.064Z,5.67
2024-04-22T03:34:10.676Z,6.00
2024-04-22T03:36:38.316Z,5.07
2024-04-22T03:39:05.868Z,5.77
2024-04-22T03:41:33.440Z,6.23
2024-04-22T03:44:02.494Z,6.30
2024-04-22T03:46:49.083Z,5.40
2024-04-22T03:49:35.327Z,5.07
2024-04-22T03:52:05.678Z,5.80
2024-04-22T03:54:33.851Z,6.27
2024-04-22T03:57:01.587Z,5.70
2024-04-22T03:59:29.170Z,5.87
2024-04-22T04:01:56.687Z,5.27
2024-04-22T04:04:24.664Z,5.57
2024-04-22T04:06:52.288Z,5.60
2024-04-22T04:09:19.959Z,5.93
2024-04-22T04:11:48.939Z,5.67
2024-04-22T04:14:16.524Z,6.20
2024-04-22T04:16:45.720Z,5.73
2024-04-22T04:19:13.394Z,5.80
2024-04-22T04:21:40.937Z,6.40
2024-04-22T04:24:09.662Z,5.53
2024-04-22T04:26:37.464Z,6.33
2024-04-22T04:29:05.314Z,5.93
2024-04-22T04:31:33.513Z,5.60
2024-04-22T04:34:01.124Z,6.43
2024-04-22T04:36:28.616Z,6.00
2024-04-22T04:38:56.160Z,5.60
2024-04-22T04:41:23.993Z,6.43
2024-04-22T04:43:51.766Z,5.93
2024-04-22T04:46:19.439Z,6.50
2024-04-22T04:48:47.021Z,6.13
2024-04-22T04:51:14.517Z,6.50
2024-04-22T04:53:42.356Z,6.57
2024-04-22T04:56:09.866Z,6.13
2024-04-22T04:58:37.596Z,6.13
2024-04-22T05:01:05.748Z,5.93
2024-04-22T05:03:33.433Z,6.20
2024-04-22T05:06:01.838Z,5.93
2024-04-22T05:08:30.751Z,7.03
2024-04-22T05:10:59.237Z,6.73
2024-04-22T05:13:26.991Z,6.83
2024-04-22T05:15:54.510Z,7.23
2024-04-22T05:18:22.079Z,7.13
2024-04-22T05:20:50.736Z,7.53
2024-04-22T05:23:18.395Z,6.70
2024-04-22T05:25:46.331Z,6.43
2024-04-22T05:28:14.145Z,6.83
2024-04-22T05:30:41.794Z,6.57
2024-04-22T05:33:30.485Z,6.80
2024-04-22T05:36:13.487Z,6.23
2024-04-22T05:38:41.753Z,6.60
2024-04-22T05:41:10.301Z,7.50
2024-04-22T05:43:39.782Z,6.27
2024-04-22T05:46:07.980Z,6.17
2024-04-22T05:48:36.221Z,5.83
2024-04-22T05:51:04.083Z,7.60
2024-04-22T05:53:31.596Z,5.97
2024-04-22T05:55:59.130Z,5.50
2024-04-22T05:58:26.723Z,5.60
2024-04-22T06:00:54.303Z,5.57
2024-04-22T06:03:21.943Z,5.63
2024-04-22T06:05:49.551Z,5.33
2024-04-22T06:08:18.023Z,5.13
2024-04-22T06:10:45.780Z,4.70
2024-04-22T06:13:13.496Z,4.97
2024-04-22T06:15:41.551Z,5.73
2024-04-22T06:18:09.218Z,4.97
2024-04-22T06:20:36.781Z,4.67
2024-04-22T06:23:04.460Z,4.73
2024-04-22T06:25:32.127Z,4.77
2024-04-22T06:27:59.795Z,4.50
2024-04-22T06:30:27.316Z,4.90
2024-04-22T06:32:56.381Z,5.17
2024-04-22T06:35:23.969Z,5.03
2024-04-22T06:37:51.522Z,4.70
2024-04-22T06:40:19.169Z,4.77
2024-04-22T06:42:46.877Z,4.97
2024-04-22T06:45:14.381Z,4.80
2024-04-22T06:47:41.960Z,4.20
2024-04-22T06:50:09.530Z,4.20
2024-04-22T06:52:37.106Z,4.70
2024-04-22T06:55:04.809Z,4.63
2024-04-22T06:57:32.476Z,4.00
2024-04-22T07:00:00.447Z,4.37
2024-04-22T07:02:30.248Z,4.37
2024-04-22T07:04:58.359Z,4.57
2024-04-22T07:07:26.058Z,3.60
2024-04-22T07:09:53.701Z,3.80
2024-04-22T07:12:21.218Z,4.27
2024-04-22T07:14:48.959Z,4.10
2024-04-22T07:17:16.570Z,3.73
2024-04-22T07:19:44.198Z,4.40
2024-04-22T07:22:11.924Z,3.67
2024-04-22T07:24:50.820Z,4.13
2024-04-22T07:27:27.573Z,3.93
2024-04-22T07:29:56.099Z,3.70
2024-04-22T07:32:23.847Z,3.47
2024-04-22T07:34:52.066Z,3.50
2024-04-22T07:37:32.849Z,3.80
2024-04-22T07:40:07.819Z,3.63
2024-04-22T07:42:35.344Z,3.30
2024-04-22T07:45:02.839Z,3.20
2024-04-22T07:47:30.451Z,4.03
2024-04-22T07:49:57.979Z,3.57
2024-04-22T07:52:25.703Z,4.20
2024-04-22T07:54:53.423Z,3.53
2024-04-22T07:57:21.458Z,3.17
2024-04-22T07:59:49.122Z,3.07
2024-04-22T08:02:16.790Z,2.67
2024-04-22T08:04:44.648Z,2.80
2024-04-22T08:07:14.720Z,2.87
2024-04-22T08:09:42.305Z,3.20
2024-04-22T08:12:11.203Z,2.90
2024-04-22T08:14:38.683Z,2.70
2024-04-22T08:17:06.310Z,3.37
2024-04-22T08:19:33.987Z,3.00
2024-04-22T08:22:01.567Z,2.70
2024-04-22T08:24:29.177Z,2.63
2024-04-22T08:26:57.300Z,2.77
2024-04-22T08:29:25.437Z,2.63
2024-04-22T08:31:54.058Z,2.10
2024-04-22T08:34:21.629Z,2.20
2024-04-22T08:36:49.195Z,2.33
2024-04-22T08:39:16.698Z,2.60
2024-04-22T08:41:44.286Z,2.93
2024-04-22T08:44:11.961Z,2.57
2024-04-22T08:46:39.488Z,2.90
2024-04-22T08:49:07.043Z,3.00
2024-04-22T08:51:37.943Z,2.83
2024-04-22T08:54:05.552Z,3.23
2024-04-22T08:56:33.122Z,2.97
2024-04-22T08:59:00.778Z,2.80
2024-04-22T09:01:31.966Z,2.70
2024-04-22T09:03:59.958Z,2.63
2024-04-22T09:06:27.738Z,2.80
2024-04-22T09:08:55.967Z,3.27
2024-04-22T09:11:47.214Z,3.10
2024-04-22T09:14:11.207Z,2.80
2024-04-22T09:16:39.104Z,3.13
2024-04-22T09:19:06.892Z,3.10
2024-04-22T09:21:39.125Z,3.30
2024-04-22T09:24:10.679Z,2.93
2024-04-22T09:26:38.234Z,3.17
2024-04-22T09:29:08.237Z,2.93
2024-04-22T09:31:43.539Z,3.47
2024-04-22T09:34:11.649Z,3.00
2024-04-22T09:36:40.132Z,2.73
2024-04-22T09:39:09.810Z,2.87
2024-04-22T09:41:37.332Z,2.77
2024-04-22T09:44:10.332Z,2.80
2024-04-22T09:46:41.476Z,3.40
2024-04-22T09:49:09.927Z,2.83
2024-04-22T09:51:38.172Z,2.73
2024-04-22T09:54:06.342Z,2.97
2024-04-22T09:56:35.594Z,2.83
2024-04-22T09:59:05.099Z,2.63
2024-04-22T10:01:32.905Z,2.80
2024-04-22T10:04:01.032Z,3.00
2024-04-22T10:06:29.536Z,2.60
2024-04-22T10:08:57.139Z,2.73
2024-04-22T10:11:27.186Z,2.40
2024-04-22T10:13:55.127Z,2.37
2024-04-22T10:16:23.323Z,2.70
2024-04-22T10:18:51.457Z,2.50
2024-04-22T10:21:20.909Z,2.73
2024-04-22T10:23:48.437Z,2.30
2024-04-22T10:26:20.218Z,2.57
2024-04-22T10:28:48.170Z,2.60
2024-04-22T10:31:22.721Z,2.10
2024-04-22T10:33:51.880Z,2.83
2024-04-22T10:36:19.873Z,2.63
2024-04-22T10:38:47.440Z,2.23
2024-04-22T10:41:16.033Z,2.77
2024-04-22T10:43:46.438Z,2.37
2024-04-22T10:46:14.185Z,2.50
2024-04-22T10:48:42.431Z,2.60
2024-04-22T10:51:12.309Z,2.43
2024-04-22T10:53:39.833Z,2.53
2024-04-22T10:56:07.823Z,2.50
2024-04-22T10:58:35.498Z,2.50
2024-04-22T11:01:03.125Z,2.50
2024-04-22T11:03:31.004Z,2.30
2024-04-22T11:06:04.279Z,2.27
2024-04-22T11:08:32.322Z,2.30
2024-04-22T11:11:00.015Z,2.30
2024-04-22T11:13:27.686Z,2.33
2024-04-22T11:15:55.328Z,2.03
2024-04-22T11:18:23.180Z,2.37
2024-04-22T11:20:51.011Z,2.27
2024-04-22T11:23:18.675Z,3.00
2024-04-22T11:25:47.729Z,2.40
2024-04-22T11:28:15.428Z,2.30
2024-04-22T11:30:46.098Z,2.63
2024-04-22T11:33:13.686Z,2.40
2024-04-22T11:35:42.855Z,2.30
2024-04-22T11:38:19.718Z,2.43
2024-04-22T11:40:49.855Z,2.33
2024-04-22T11:43:17.739Z,2.10
2024-04-22T11:45:45.414Z,2.50
2024-04-22T11:48:13.299Z,2.20
2024-04-22T11:50:40.974Z,2.30
2024-04-22T11:53:17.724Z,2.13
2024-04-22T11:55:50.806Z,2.67
2024-04-22T11:58:19.699Z,2.60
2024-04-22T12:00:47.554Z,2.20
2024-04-22T12:03:15.091Z,2.40
2024-04-22T12:05:42.751Z,2.00
2024-04-22T12:08:10.397Z,2.03
2024-04-22T12:10:37.939Z,1.93
2024-04-22T12:13:08.615Z,2.07
2024-04-22T12:15:36.373Z,2.10
2024-04-22T12:18:04.115Z,2.10
2024-04-22T12:20:31.671Z,2.13
2024-04-22T12:22:59.256Z,2.30
2024-04-22T12:25:26.904Z,2.53
2024-04-22T12:27:59.238Z,2.10
2024-04-22T12:30:33.273Z,2.30
2024-04-22T12:33:03.685Z,1.97
2024-04-22T12:35:31.276Z,2.13
2024-04-22T12:37:58.801Z,2.10
2024-04-22T12:40:26.361Z,2.23
2024-04-22T12:42:53.957Z,2.20
2024-04-22T12:45:24.228Z,1.90
2024-04-22T12:48:12.625Z,2.10
2024-04-22T12:50:47.047Z,1.80
2024-04-22T12:53:19.109Z,1.93
2024-04-22T12:55:47.168Z,2.13
2024-04-22T12:58:15.789Z,2.40
2024-04-22T13:00:43.662Z,2.17
2024-04-22T13:03:11.603Z,2.40
2024-04-22T13:05:39.763Z,2.20
2024-04-22T13:08:07.503Z,2.83
2024-04-22T13:10:35.176Z,2.30
2024-04-22T13:13:05.994Z,2.67
2024-04-22T13:15:34.534Z,2.83
2024-04-22T13:18:02.740Z,2.57
2024-04-22T13:20:30.594Z,2.90
2024-04-22T13:22:58.238Z,2.80
2024-04-22T13:25:26.348Z,3.20
2024-04-22T13:27:56.020Z,3.53
2024-04-22T13:30:23.727Z,3.40
2024-04-22T13:32:52.283Z,3.40
2024-04-22T13:35:20.208Z,3.40
2024-04-22T13:37:47.848Z,3.40
2024-04-22T13:40:15.594Z,3.23
2024-04-22T13:42:46.442Z,3.47
2024-04-22T13:45:19.118Z,3.47
2024-04-22T13:47:46.871Z,3.23
2024-04-22T13:50:14.572Z,3.23
2024-04-22T13:52:45.436Z,3.10
2024-04-22T13:55:13.418Z,3.03
2024-04-22T13:57:41.104Z,2.67
2024-04-22T14:00:12.199Z,2.80
2024-04-22T14:02:42.144Z,3.10
2024-04-22T14:05:10.048Z,3.03
2024-04-22T14:07:37.744Z,2.77
2024-04-22T14:10:09.012Z,2.60
2024-04-22T14:12:37.525Z,2.90
2024-04-22T14:15:09.439Z,2.47
2024-04-22T14:17:40.278Z,2.57
2024-04-22T14:20:09.100Z,2.93
2024-04-22T14:22:36.686Z,3.53
2024-04-22T14:25:04.285Z,2.87
2024-04-22T14:27:33.722Z,2.83
2024-04-22T14:30:01.774Z,3.10
2024-04-22T14:32:29.495Z,2.67
2024-04-22T14:35:00.452Z,2.63
2024-04-22T14:37:28.028Z,2.80
2024-04-22T14:39:55.899Z,2.87
2024-04-22T14:42:23.454Z,2.90
2024-04-22T14:44:50.990Z,2.97
2024-04-22T14:47:18.605Z,2.90
2024-04-22T14:49:46.702Z,3.27
2024-04-22T14:52:14.363Z,2.90
2024-04-22T14:54:44.795Z,2.80
2024-04-22T14:57:13.787Z,2.53
2024-04-22T14:59:41.718Z,3.50
2024-04-22T15:02:10.441Z,2.80
2024-04-22T15:04:38.524Z,2.97
2024-04-22T15:07:07.594Z,2.63
2024-04-22T15:09:42.930Z,3.13
2024-04-22T15:12:10.551Z,2.93
2024-04-22T15:14:38.409Z,2.70
2024-04-22T15:17:06.158Z,2.80
2024-04-22T15:19:34.041Z,2.50
2024-04-22T15:22:01.721Z,2.53
2024-04-22T15:24:29.257Z,2.43
2024-04-22T15:26:56.866Z,2.20
2024-04-22T15:29:24.387Z,2.57
2024-04-22T15:31:52.006Z,2.53
2024-04-22T15:34:19.567Z,2.47
2024-04-22T15:36:47.114Z,2.20
2024-04-22T15:39:14.744Z,2.67
2024-04-22T15:41:42.355Z,2.07
2024-04-22T15:44:09.867Z,2.50
2024-04-22T15:46:37.389Z,2.50
2024-04-22T15:49:04.952Z,2.17
2024-04-22T15:51:34.043Z,2.30
2024-04-22T15:54:01.576Z,2.40
2024-04-22T15:56:29.133Z,2.80
2024-04-22T15:58:57.824Z,2.93
2024-04-22T16:01:25.598Z,2.87
2024-04-22T16:03:53.299Z,2.43
2024-04-22T16:06:20.859Z,2.37
2024-04-22T16:08:48.382Z,2.60
2024-04-22T16:11:15.931Z,2.63
2024-04-22T16:13:43.534Z,2.60
2024-04-22T16:16:11.087Z,3.10
2024-04-22T16:18:38.641Z,2.90
2024-04-22T16:21:15.298Z,2.93
2024-04-22T16:23:44.909Z,3.23
2024-04-22T16:26:12.447Z,3.00
2024-04-22T16:28:40.665Z,2.90
2024-04-22T16:31:08.199Z,3.23
2024-04-22T16:33:35.702Z,2.40
2024-04-22T16:36:03.681Z,3.20
2024-04-22T16:38:31.307Z,3.00
2024-04-22T16:40:59.005Z,3.13
2024-04-22T16:43:29.360Z,2.93
2024-04-22T16:45:57.364Z,2.90
2024-04-22T16:48:26.580Z,3.33
2024-04-22T16:50:57.315Z,3.23
2024-04-22T16:53:24.912Z,3.30
2024-04-22T16:55:52.602Z,3.00
2024-04-22T16:58:20.202Z,2.90
2024-04-22T17:00:48.419Z,3.17
2024-04-22T17:03:16.019Z,3.20
2024-04-22T17:05:45.636Z,2.67
2024-04-22T17:08:13.321Z,2.43
2024-04-22T17:10:43.086Z,2.77
2024-04-22T17:13:11.774Z,2.70
2024-04-22T17:15:39.398Z,2.53
2024-04-22T17:18:07.195Z,2.53
2024-04-22T17:20:34.834Z,3.03
2024-04-22T17:23:16.295Z,2.90
2024-04-22T17:25:43.895Z,3.07
2024-04-22T17:28:12.216Z,2.87
2024-04-22T17:30:39.845Z,2.50
2024-04-22T17:33:07.510Z,2.60
2024-04-22T17:35:35.325Z,3.00
2024-04-22T17:38:03.025Z,2.83
2024-04-22T17:40:30.802Z,2.80
2024-04-22T17:42:58.359Z,3.50
2024-04-22T17:45:25.914Z,3.27
2024-04-22T17:47:53.874Z,3.33
2024-04-22T17:50:21.463Z,3.27
2024-04-22T17:52:49.527Z,2.70
2024-04-22T17:55:17.325Z,2.67
2024-04-22T17:57:45.074Z,3.63
2024-04-22T18:00:16.656Z,3.30
2024-04-22T18:02:44.939Z,3.03
2024-04-22T18:05:12.810Z,3.00
2024-04-22T18:07:40.407Z,2.80
2024-04-22T18:10:08.164Z,3.30
2024-04-22T18:12:35.872Z,2.70
2024-04-22T18:15:03.462Z,2.97
2024-04-22T18:17:31.075Z,2.93
2024-04-22T18:19:59.706Z,3.00
2024-04-22T18:22:29.811Z,2.80
2024-04-22T18:24:59.642Z,2.90
2024-04-22T18:27:28.447Z,3.10
2024-04-22T18:29:55.988Z,3.30
2024-04-22T18:32:23.526Z,4.17
2024-04-22T18:34:51.123Z,2.90
2024-04-22T18:37:18.762Z,2.83
2024-04-22T18:39:48.322Z,3.27
2024-04-22T18:42:16.122Z,3.20
2024-04-22T18:44:44.211Z,3.27
2024-04-22T18:47:12.107Z,3.60
2024-04-22T18:49:41.201Z,3.20
2024-04-22T18:52:08.897Z,3.27
2024-04-22T18:54:39.530Z,3.30
2024-04-22T18:57:07.105Z,3.00
2024-04-22T18:59:34.698Z,3.50
2024-04-22T19:02:04.796Z,3.80
2024-04-22T19:04:32.639Z,3.30
2024-04-22T19:07:00.198Z,3.23
2024-04-22T19:09:27.727Z,3.77
2024-04-22T19:11:55.377Z,4.17
2024-04-22T19:14:23.042Z,3.87
2024-04-22T19:16:51.037Z,3.10
2024-04-22T19:19:20.922Z,4.20
2024-04-22T19:21:49.184Z,3.70
2024-04-22T19:24:16.713Z,3.83
2024-04-22T19:26:44.209Z,3.83
2024-04-22T19:29:11.731Z,4.50
2024-04-22T19:31:39.331Z,3.60
2024-04-22T19:34:07.063Z,3.67
2024-04-22T19:36:34.697Z,4.23
2024-04-22T19:39:02.243Z,4.77
2024-04-22T19:41:31.995Z,3.80
2024-04-22T19:44:01.324Z,3.77
2024-04-22T19:46:28.955Z,4.00
2024-04-22T19:48:57.613Z,3.13
2024-04-22T19:51:25.189Z,4.23
2024-04-22T19:53:52.745Z,3.53
2024-04-22T19:56:20.349Z,3.83
2024-04-22T19:58:47.953Z,3.57
2024-04-22T20:01:15.676Z,3.60
2024-04-22T20:03:43.399Z,3.57
2024-04-22T20:06:11.220Z,4.03
2024-04-22T20:08:38.863Z,4.03
2024-04-22T20:11:06.768Z,3.77
2024-04-22T20:13:34.402Z,3.73
2024-04-22T20:16:15.708Z,3.90
2024-04-22T20:18:55.073Z,4.20
2024-04-22T20:21:22.861Z,3.50
2024-04-22T20:23:51.255Z,4.27
2024-04-22T20:26:19.765Z,4.00
2024-04-22T20:28:47.323Z,3.87
2024-04-22T20:31:18.396Z,4.10
2024-04-22T20:33:46.442Z,4.23
2024-04-22T20:36:14.119Z,4.00
2024-04-22T20:38:41.662Z,4.47
2024-04-22T20:41:09.379Z,4.47
2024-04-22T20:43:37.066Z,4.87
2024-04-22T20:46:05.116Z,3.90
2024-04-22T20:48:37.858Z,4.53
2024-04-22T20:51:06.485Z,4.23
2024-04-22T20:53:34.538Z,4.47
2024-04-22T20:56:05.381Z,3.87
2024-04-22T20:58:36.866Z,4.50
2024-04-22T21:01:05.746Z,4.53
2024-04-22T21:03:34.950Z,4.03
2024-04-22T21:06:07.343Z,5.97
2024-04-22T21:08:35.164Z,7.23
2024-04-22T21:11:04.468Z,6.20
2024-04-22T21:13:36.408Z,5.43
2024-04-22T21:16:04.449Z,5.20
2024-04-22T21:18:32.027Z,4.30
2024-04-22T21:20:59.586Z,4.20
2024-04-22T21:23:27.095Z,4.23
2024-04-22T21:25:55.685Z,3.97
2024-04-22T21:28:24.497Z,4.27
2024-04-22T21:30:59.818Z,4.10
2024-04-22T21:33:43.502Z,3.93
2024-04-22T21:36:15.178Z,4.60
2024-04-22T21:38:43.071Z,4.57
2024-04-22T21:41:10.820Z,4.00
2024-04-22T21:43:38.404Z,4.43
2024-04-22T21:46:06.189Z,4.10
2024-04-22T21:48:33.858Z,4.27
2024-04-22T21:51:01.465Z,4.43
2024-04-22T21:53:29.343Z,4.27
2024-04-22T21:56:09.512Z,4.67
2024-04-22T21:58:55.799Z,4.90
2024-04-22T22:01:42.201Z,4.60
2024-04-22T22:04:28.888Z,4.40
2024-04-22T22:07:18.570Z,4.03
2024-04-22T22:09:47.606Z,4.40
2024-04-22T22:12:15.642Z,4.40
2024-04-22T22:14:43.711Z,4.33
2024-04-22T22:17:12.734Z,4.20
2024-04-22T22:19:41.250Z,4.77
2024-04-22T22:22:09.060Z,4.43
2024-04-22T22:24:43.753Z,4.67
2024-04-22T22:27:12.237Z,4.50
2024-04-22T22:29:39.956Z,3.83
2024-04-22T22:32:07.809Z,4.87
2024-04-22T22:34:35.934Z,5.00
2024-04-22T22:37:06.352Z,4.27
2024-04-22T22:39:34.405Z,4.13
2024-04-22T22:42:02.271Z,3.97
2024-04-22T22:44:29.820Z,4.87
2024-04-22T22:47:04.863Z,4.10
2024-04-22T22:49:32.908Z,4.03
2024-04-22T22:52:00.665Z,4.10
2024-04-22T22:54:31.061Z,4.20
2024-04-22T22:56:59.365Z,4.67
2024-04-22T22:59:27.134Z,4.70
2024-04-22T23:01:55.564Z,5.10
2024-04-22T23:04:23.662Z,4.87
2024-04-22T23:06:51.350Z,4.63
2024-04-22T23:09:18.904Z,4.00
2024-04-22T23:11:46.521Z,4.27
2024-04-22T23:14:14.176Z,4.17
2024-04-22T23:16:41.728Z,4.30
2024-04-22T23:19:09.384Z,4.60
2024-04-22T23:21:37.015Z,4.53
2024-04-22T23:24:04.685Z,4.47
2024-04-22T23:26:32.251Z,4.10
2024-04-22T23:28:59.866Z,4.83
2024-04-22T23:31:27.765Z,4.13
2024-04-22T23:33:55.405Z,4.60
2024-04-22T23:36:23.126Z,4.20
2024-04-22T23:38:50.723Z,4.73
2024-04-22T23:41:18.323Z,4.83
2024-04-22T23:43:46.948Z,4.63
2024-04-22T23:46:14.568Z,5.00
2024-04-22T23:48:42.144Z,4.90
2024-04-22T23:51:09.984Z,5.07
2024-04-22T23:53:37.555Z,4.77
2024-04-22T23:56:05.905Z,5.17
2024-04-22T23:58:33.817Z,4.97
